sensor_id;sensor_type;location;lat;lon;timestamp;pressure;altitude;pressure_sealevel;temperature;humidity
2563;BME280;1291;51.420;6.970;2022-08-16T00:00:27;99094.34;;;46.69;11.81
2563;BME280;1291;51.420;6.970;2022-08-16T00:02:54;99101.31;;;46.71;11.49
2563;BME280;1291;51.420;6.970;2022-08-16T00:05:24;99088.59;;;46.77;11.72
2563;BME280;1291;51.420;6.970;2022-08-16T00:07:50;99095.97;;;47.35;11.43
2563;BME280;1291;51.420;6.970;2022-08-16T00:10:17;99092.09;;;47.43;11.18
2563;BME280;1291;51.420;6.970;2022-08-16T00:12:43;99093.22;;;47.35;11.49
2563;BME280;1291;51.420;6.970;2022-08-16T00:15:22;99099.47;;;47.10;11.62
2563;BME280;1291;51.420;6.970;2022-08-16T00:17:48;99095.56;;;47.63;10.91
2563;BME280;1291;51.420;6.970;2022-08-16T00:20:14;99098.16;;;47.83;11.10
2563;BME280;1291;51.420;6.970;2022-08-16T00:22:41;99102.63;;;47.14;11.80
2563;BME280;1291;51.420;6.970;2022-08-16T00:25:09;99097.19;;;45.49;13.18
2563;BME280;1291;51.420;6.970;2022-08-16T00:27:35;99101.06;;;47.31;11.74
2563;BME280;1291;51.420;6.970;2022-08-16T00:30:01;99099.41;;;47.87;11.35
2563;BME280;1291;51.420;6.970;2022-08-16T00:32:27;99104.91;;;47.24;11.56
2563;BME280;1291;51.420;6.970;2022-08-16T00:34:52;99110.25;;;46.60;12.12
2563;BME280;1291;51.420;6.970;2022-08-16T00:37:20;99113.16;;;45.32;13.07
2563;BME280;1291;51.420;6.970;2022-08-16T00:39:46;99104.81;;;45.93;12.62
2563;BME280;1291;51.420;6.970;2022-08-16T00:42:12;99113.84;;;45.41;13.05
2563;BME280;1291;51.420;6.970;2022-08-16T00:44:38;99114.06;;;43.71;14.75
2563;BME280;1291;51.420;6.970;2022-08-16T00:47:07;99106.72;;;46.00;12.64
2563;BME280;1291;51.420;6.970;2022-08-16T00:49:34;99110.31;;;44.98;13.75
2563;BME280;1291;51.420;6.970;2022-08-16T00:52:00;99113.94;;;46.92;11.94
2563;BME280;1291;51.420;6.970;2022-08-16T00:54:27;99109.41;;;46.40;12.28
2563;BME280;1291;51.420;6.970;2022-08-16T00:56:55;99107.34;;;45.88;12.93
2563;BME280;1291;51.420;6.970;2022-08-16T00:59:23;99121.38;;;42.91;15.87
2563;BME280;1291;51.420;6.970;2022-08-16T01:01:51;99110.31;;;45.67;13.41
2563;BME280;1291;51.420;6.970;2022-08-16T01:04:23;99104.63;;;44.23;14.66
2563;BME280;1291;51.420;6.970;2022-08-16T01:06:50;99114.25;;;43.91;14.77
2563;BME280;1291;51.420;6.970;2022-08-16T01:09:16;99105.28;;;45.02;13.94
2563;BME280;1291;51.420;6.970;2022-08-16T01:11:45;99110.91;;;46.49;12.53
2563;BME280;1291;51.420;6.970;2022-08-16T01:14:18;99103.63;;;46.81;12.34
2563;BME280;1291;51.420;6.970;2022-08-16T01:16:47;99100.19;;;45.74;13.29
2563;BME280;1291;51.420;6.970;2022-08-16T01:22:00;99105.66;;;46.14;12.83
2563;BME280;1291;51.420;6.970;2022-08-16T01:24:43;99115.41;;;45.08;13.81
2563;BME280;1291;51.420;6.970;2022-08-16T01:27:16;99109.81;;;45.43;13.97
2563;BME280;1291;51.420;6.970;2022-08-16T01:32:09;99108.16;;;46.35;12.70
2563;BME280;1291;51.420;6.970;2022-08-16T01:34:34;99104.25;;;46.76;12.45
2563;BME280;1291;51.420;6.970;2022-08-16T01:37:06;99114.16;;;46.91;12.33
2563;BME280;1291;51.420;6.970;2022-08-16T01:39:33;99119.72;;;46.64;12.40
2563;BME280;1291;51.420;6.970;2022-08-16T01:42:00;99109.84;;;43.97;14.44
2563;BME280;1291;51.420;6.970;2022-08-16T01:44:26;99111.16;;;45.87;13.01
2563;BME280;1291;51.420;6.970;2022-08-16T01:46:52;99106.59;;;44.36;14.12
2563;BME280;1291;51.420;6.970;2022-08-16T01:49:50;99113.66;;;43.53;14.98
2563;BME280;1291;51.420;6.970;2022-08-16T01:52:16;99109.16;;;43.67;15.14
2563;BME280;1291;51.420;6.970;2022-08-16T01:54:42;99104.91;;;43.21;15.54
2563;BME280;1291;51.420;6.970;2022-08-16T01:57:09;99104.50;;;43.82;15.18
2563;BME280;1291;51.420;6.970;2022-08-16T01:59:35;99090.84;;;44.80;13.87
2563;BME280;1291;51.420;6.970;2022-08-16T02:02:03;99099.16;;;44.58;14.26
2563;BME280;1291;51.420;6.970;2022-08-16T02:04:30;99103.53;;;43.96;14.86
2563;BME280;1291;51.420;6.970;2022-08-16T02:06:57;99100.94;;;46.61;12.75
2563;BME280;1291;51.420;6.970;2022-08-16T02:09:23;99101.47;;;43.98;14.85
2563;BME280;1291;51.420;6.970;2022-08-16T02:11:53;99110.72;;;42.52;15.77
2563;BME280;1291;51.420;6.970;2022-08-16T02:14:24;99110.53;;;42.38;16.49
2563;BME280;1291;51.420;6.970;2022-08-16T02:16:50;99110.75;;;44.95;13.93
2563;BME280;1291;51.420;6.970;2022-08-16T02:19:16;99110.28;;;45.60;13.42
2563;BME280;1291;51.420;6.970;2022-08-16T02:21:49;99119.78;;;44.54;14.21
2563;BME280;1291;51.420;6.970;2022-08-16T02:24:17;99113.78;;;44.79;13.76
2563;BME280;1291;51.420;6.970;2022-08-16T02:26:42;99122.91;;;44.51;14.08
2563;BME280;1291;51.420;6.970;2022-08-16T02:29:08;99112.97;;;45.40;13.71
2563;BME280;1291;51.420;6.970;2022-08-16T02:31:37;99116.16;;;45.64;13.05
2563;BME280;1291;51.420;6.970;2022-08-16T02:34:03;99123.50;;;42.96;15.62
2563;BME280;1291;51.420;6.970;2022-08-16T02:36:30;99111.19;;;46.07;12.88
2563;BME280;1291;51.420;6.970;2022-08-16T02:38:55;99111.53;;;44.19;14.46
2563;BME280;1291;51.420;6.970;2022-08-16T02:41:20;99102.97;;;45.06;13.48
2563;BME280;1291;51.420;6.970;2022-08-16T02:43:46;99109.88;;;45.96;12.54
2563;BME280;1291;51.420;6.970;2022-08-16T02:46:11;99104.38;;;45.56;13.18
2563;BME280;1291;51.420;6.970;2022-08-16T02:48:38;99097.63;;;45.92;13.13
2563;BME280;1291;51.420;6.970;2022-08-16T02:51:05;99099.44;;;44.35;14.03
2563;BME280;1291;51.420;6.970;2022-08-16T02:53:32;99098.59;;;45.25;13.53
2563;BME280;1291;51.420;6.970;2022-08-16T02:55:58;99097.16;;;44.80;13.66
2563;BME280;1291;51.420;6.970;2022-08-16T02:58:23;99099.44;;;42.55;15.90
2563;BME280;1291;51.420;6.970;2022-08-16T03:00:49;99094.31;;;43.97;14.43
2563;BME280;1291;51.420;6.970;2022-08-16T03:03:18;99098.81;;;44.40;14.22
2563;BME280;1291;51.420;6.970;2022-08-16T03:05:44;99100.53;;;42.90;15.72
2563;BME280;1291;51.420;6.970;2022-08-16T03:08:11;99106.50;;;42.64;15.62
2563;BME280;1291;51.420;6.970;2022-08-16T03:10:37;99102.81;;;42.57;15.89
2563;BME280;1291;51.420;6.970;2022-08-16T03:13:03;99091.84;;;43.59;14.94
2563;BME280;1291;51.420;6.970;2022-08-16T03:15:29;99090.00;;;44.10;14.32
2563;BME280;1291;51.420;6.970;2022-08-16T03:17:56;99097.97;;;43.83;14.66
2563;BME280;1291;51.420;6.970;2022-08-16T03:20:22;99104.88;;;43.57;14.82
2563;BME280;1291;51.420;6.970;2022-08-16T03:22:47;99106.44;;;42.19;16.26
2563;BME280;1291;51.420;6.970;2022-08-16T03:25:14;99107.56;;;41.87;16.70
2563;BME280;1291;51.420;6.970;2022-08-16T03:27:41;99107.16;;;42.66;15.88
2563;BME280;1291;51.420;6.970;2022-08-16T03:30:17;99094.34;;;43.18;15.22
2563;BME280;1291;51.420;6.970;2022-08-16T03:32:44;99098.44;;;43.07;15.69
2563;BME280;1291;51.420;6.970;2022-08-16T03:35:10;99102.59;;;42.43;15.69
2563;BME280;1291;51.420;6.970;2022-08-16T03:37:36;99105.78;;;44.42;14.17
2563;BME280;1291;51.420;6.970;2022-08-16T03:40:03;99106.03;;;41.46;17.08
2563;BME280;1291;51.420;6.970;2022-08-16T03:42:31;99106.75;;;41.63;17.16
2563;BME280;1291;51.420;6.970;2022-08-16T03:44:57;99100.09;;;41.43;16.90
2563;BME280;1291;51.420;6.970;2022-08-16T03:47:22;99105.72;;;41.10;17.37
2563;BME280;1291;51.420;6.970;2022-08-16T03:49:48;99103.97;;;43.29;15.11
2563;BME280;1291;51.420;6.970;2022-08-16T03:52:14;99104.97;;;42.17;16.20
2563;BME280;1291;51.420;6.970;2022-08-16T03:54:39;99113.28;;;42.68;15.77
2563;BME280;1291;51.420;6.970;2022-08-16T03:57:05;99114.66;;;41.96;16.58
2563;BME280;1291;51.420;6.970;2022-08-16T03:59:31;99118.91;;;42.81;15.52
2563;BME280;1291;51.420;6.970;2022-08-16T04:01:58;99117.47;;;42.41;15.97
2563;BME280;1291;51.420;6.970;2022-08-16T04:04:28;99116.53;;;42.78;15.48
2563;BME280;1291;51.420;6.970;2022-08-16T04:06:53;99127.63;;;42.32;15.55
2563;BME280;1291;51.420;6.970;2022-08-16T04:09:19;99128.06;;;42.06;16.17
2563;BME280;1291;51.420;6.970;2022-08-16T04:11:44;99125.50;;;42.57;15.84
2563;BME280;1291;51.420;6.970;2022-08-16T04:14:10;99122.31;;;43.35;14.85
2563;BME280;1291;51.420;6.970;2022-08-16T04:16:36;99128.97;;;43.69;14.70
2563;BME280;1291;51.420;6.970;2022-08-16T04:19:01;99126.31;;;42.43;16.05
2563;BME280;1291;51.420;6.970;2022-08-16T04:21:29;99120.88;;;44.03;14.22
2563;BME280;1291;51.420;6.970;2022-08-16T04:23:55;99115.38;;;45.70;12.90
2563;BME280;1291;51.420;6.970;2022-08-16T04:26:23;99122.66;;;45.36;13.01
2563;BME280;1291;51.420;6.970;2022-08-16T04:28:49;99132.84;;;43.01;15.38
2563;BME280;1291;51.420;6.970;2022-08-16T04:31:14;99130.75;;;44.96;13.25
2563;BME280;1291;51.420;6.970;2022-08-16T04:33:40;99143.41;;;43.41;15.07
2563;BME280;1291;51.420;6.970;2022-08-16T04:36:05;99138.00;;;44.40;14.02
2563;BME280;1291;51.420;6.970;2022-08-16T04:38:31;99136.16;;;45.31;12.84
2563;BME280;1291;51.420;6.970;2022-08-16T04:40:57;99139.16;;;44.25;14.10
2563;BME280;1291;51.420;6.970;2022-08-16T04:43:22;99145.06;;;45.59;12.90
2563;BME280;1291;51.420;6.970;2022-08-16T04:45:48;99152.31;;;44.42;13.68
2563;BME280;1291;51.420;6.970;2022-08-16T04:48:13;99143.47;;;44.12;14.25
2563;BME280;1291;51.420;6.970;2022-08-16T04:50:39;99152.84;;;43.09;14.90
2563;BME280;1291;51.420;6.970;2022-08-16T04:53:04;99150.78;;;42.36;15.86
2563;BME280;1291;51.420;6.970;2022-08-16T04:55:31;99151.66;;;44.12;14.18
2563;BME280;1291;51.420;6.970;2022-08-16T04:57:57;99152.63;;;43.61;14.61
2563;BME280;1291;51.420;6.970;2022-08-16T05:00:28;99157.03;;;42.45;15.49
2563;BME280;1291;51.420;6.970;2022-08-16T05:03:07;99160.88;;;43.10;15.22
2563;BME280;1291;51.420;6.970;2022-08-16T05:05:34;99164.13;;;43.93;14.60
2563;BME280;1291;51.420;6.970;2022-08-16T05:08:04;99165.44;;;41.11;17.47
2563;BME280;1291;51.420;6.970;2022-08-16T05:10:31;99161.88;;;43.24;15.11
2563;BME280;1291;51.420;6.970;2022-08-16T05:12:58;99163.91;;;45.76;12.71
2563;BME280;1291;51.420;6.970;2022-08-16T05:15:24;99164.97;;;45.20;13.32
2563;BME280;1291;51.420;6.970;2022-08-16T05:17:49;99158.81;;;45.73;12.46
2563;BME280;1291;51.420;6.970;2022-08-16T05:20:15;99169.06;;;45.37;13.34
2563;BME280;1291;51.420;6.970;2022-08-16T05:22:40;99180.53;;;43.20;15.20
2563;BME280;1291;51.420;6.970;2022-08-16T05:25:07;99172.84;;;44.25;14.37
2563;BME280;1291;51.420;6.970;2022-08-16T05:27:33;99168.97;;;43.70;14.57
2563;BME280;1291;51.420;6.970;2022-08-16T05:29:58;99171.28;;;43.73;14.61
2563;BME280;1291;51.420;6.970;2022-08-16T05:32:24;99181.88;;;44.54;13.71
2563;BME280;1291;51.420;6.970;2022-08-16T05:34:50;99179.94;;;44.76;13.88
2563;BME280;1291;51.420;6.970;2022-08-16T05:37:15;99177.91;;;42.82;15.89
2563;BME280;1291;51.420;6.970;2022-08-16T05:39:40;99179.81;;;42.82;15.93
2563;BME280;1291;51.420;6.970;2022-08-16T05:42:06;99184.38;;;43.26;15.50
2563;BME280;1291;51.420;6.970;2022-08-16T05:44:32;99186.84;;;41.85;15.93
2563;BME280;1291;51.420;6.970;2022-08-16T05:46:58;99179.19;;;44.32;14.20
2563;BME280;1291;51.420;6.970;2022-08-16T05:49:26;99170.53;;;45.33;13.32
2563;BME280;1291;51.420;6.970;2022-08-16T05:51:52;99184.16;;;43.79;14.53
2563;BME280;1291;51.420;6.970;2022-08-16T05:54:21;99183.03;;;43.52;15.13
2563;BME280;1291;51.420;6.970;2022-08-16T05:56:47;99183.91;;;44.45;14.30
2563;BME280;1291;51.420;6.970;2022-08-16T05:59:15;99194.22;;;43.05;15.06
2563;BME280;1291;51.420;6.970;2022-08-16T06:01:41;99185.84;;;42.01;16.12
2563;BME280;1291;51.420;6.970;2022-08-16T06:04:10;99186.97;;;44.29;14.28
2563;BME280;1291;51.420;6.970;2022-08-16T06:06:41;99177.69;;;43.80;14.87
2563;BME280;1291;51.420;6.970;2022-08-16T06:09:09;99183.31;;;45.19;13.62
2563;BME280;1291;51.420;6.970;2022-08-16T06:11:35;99188.44;;;43.30;15.58
2563;BME280;1291;51.420;6.970;2022-08-16T06:14:02;99186.28;;;43.40;15.20
2563;BME280;1291;51.420;6.970;2022-08-16T06:16:28;99181.88;;;43.61;15.15
2563;BME280;1291;51.420;6.970;2022-08-16T06:18:53;99189.16;;;44.68;14.26
2563;BME280;1291;51.420;6.970;2022-08-16T06:21:19;99190.91;;;44.26;14.29
2563;BME280;1291;51.420;6.970;2022-08-16T06:23:44;99196.16;;;43.78;15.24
2563;BME280;1291;51.420;6.970;2022-08-16T06:26:10;99186.72;;;46.23;12.73
2563;BME280;1291;51.420;6.970;2022-08-16T06:28:36;99206.38;;;43.33;15.34
2563;BME280;1291;51.420;6.970;2022-08-16T06:31:01;99202.97;;;45.30;13.68
2563;BME280;1291;51.420;6.970;2022-08-16T06:33:27;99200.38;;;45.15;14.08
2563;BME280;1291;51.420;6.970;2022-08-16T06:35:53;99214.66;;;43.24;15.79
2563;BME280;1291;51.420;6.970;2022-08-16T06:38:20;99213.81;;;43.09;15.94
2563;BME280;1291;51.420;6.970;2022-08-16T06:40:47;99207.84;;;46.16;13.24
2563;BME280;1291;51.420;6.970;2022-08-16T06:43:13;99217.84;;;45.62;13.59
2563;BME280;1291;51.420;6.970;2022-08-16T06:45:38;99211.81;;;48.16;11.71
2563;BME280;1291;51.420;6.970;2022-08-16T06:48:06;99222.22;;;43.74;14.99
2563;BME280;1291;51.420;6.970;2022-08-16T06:50:32;99207.84;;;46.09;12.95
2563;BME280;1291;51.420;6.970;2022-08-16T06:53:03;99212.25;;;47.42;11.87
2563;BME280;1291;51.420;6.970;2022-08-16T06:55:29;99211.34;;;47.87;11.44
2563;BME280;1291;51.420;6.970;2022-08-16T06:57:55;99206.53;;;46.65;12.79
2563;BME280;1291;51.420;6.970;2022-08-16T07:00:22;99202.38;;;47.28;11.93
2563;BME280;1291;51.420;6.970;2022-08-16T07:02:48;99209.13;;;48.09;11.40
2563;BME280;1291;51.420;6.970;2022-08-16T07:05:15;99208.50;;;45.36;14.05
2563;BME280;1291;51.420;6.970;2022-08-16T07:07:44;99209.41;;;45.57;13.44
2563;BME280;1291;51.420;6.970;2022-08-16T07:10:11;99215.03;;;44.94;14.21
2563;BME280;1291;51.420;6.970;2022-08-16T07:12:37;99216.94;;;45.35;13.54
2563;BME280;1291;51.420;6.970;2022-08-16T07:15:04;99226.38;;;43.70;15.36
2563;BME280;1291;51.420;6.970;2022-08-16T07:17:30;99221.06;;;45.79;13.52
2563;BME280;1291;51.420;6.970;2022-08-16T07:19:57;99228.72;;;45.29;14.06
2563;BME280;1291;51.420;6.970;2022-08-16T07:22:23;99228.28;;;46.00;13.43
2563;BME280;1291;51.420;6.970;2022-08-16T07:24:49;99235.31;;;45.48;14.08
2563;BME280;1291;51.420;6.970;2022-08-16T07:27:21;99239.78;;;45.14;14.26
2563;BME280;1291;51.420;6.970;2022-08-16T07:29:46;99238.78;;;47.10;12.56
2563;BME280;1291;51.420;6.970;2022-08-16T07:32:12;99236.91;;;48.01;11.93
2563;BME280;1291;51.420;6.970;2022-08-16T07:34:38;99246.25;;;47.93;12.08
2563;BME280;1291;51.420;6.970;2022-08-16T07:37:08;99246.47;;;48.23;11.53
2563;BME280;1291;51.420;6.970;2022-08-16T07:39:35;99247.59;;;47.39;12.29
2563;BME280;1291;51.420;6.970;2022-08-16T07:42:01;99241.41;;;45.50;13.75
2563;BME280;1291;51.420;6.970;2022-08-16T07:44:27;99242.47;;;46.44;13.17
2563;BME280;1291;51.420;6.970;2022-08-16T07:46:52;99243.72;;;45.05;14.09
2563;BME280;1291;51.420;6.970;2022-08-16T07:49:18;99247.75;;;46.25;13.47
2563;BME280;1291;51.420;6.970;2022-08-16T07:51:44;99240.59;;;47.36;12.82
2563;BME280;1291;51.420;6.970;2022-08-16T07:54:10;99244.34;;;48.50;11.61
2563;BME280;1291;51.420;6.970;2022-08-16T07:56:37;99253.09;;;47.32;12.67
2563;BME280;1291;51.420;6.970;2022-08-16T07:59:03;99257.91;;;47.57;12.05
2563;BME280;1291;51.420;6.970;2022-08-16T08:01:29;99255.03;;;49.09;10.77
2563;BME280;1291;51.420;6.970;2022-08-16T08:03:56;99253.53;;;47.36;12.58
2563;BME280;1291;51.420;6.970;2022-08-16T08:06:23;99258.75;;;47.96;11.71
2563;BME280;1291;51.420;6.970;2022-08-16T08:08:49;99265.63;;;47.21;12.83
2563;BME280;1291;51.420;6.970;2022-08-16T08:11:15;99275.41;;;48.07;11.99
2563;BME280;1291;51.420;6.970;2022-08-16T08:13:41;99272.03;;;46.42;13.67
2563;BME280;1291;51.420;6.970;2022-08-16T08:16:07;99273.09;;;45.59;13.64
2563;BME280;1291;51.420;6.970;2022-08-16T08:18:37;99274.78;;;47.53;12.54
2563;BME280;1291;51.420;6.970;2022-08-16T08:21:02;99279.47;;;49.05;10.92
2563;BME280;1291;51.420;6.970;2022-08-16T08:23:28;99272.72;;;49.20;10.83
2563;BME280;1291;51.420;6.970;2022-08-16T08:25:54;99276.09;;;49.03;11.14
2563;BME280;1291;51.420;6.970;2022-08-16T08:28:19;99276.31;;;48.51;11.31
2563;BME280;1291;51.420;6.970;2022-08-16T08:30:45;99276.81;;;48.74;11.21
2563;BME280;1291;51.420;6.970;2022-08-16T08:33:13;99277.00;;;49.83;10.47
2563;BME280;1291;51.420;6.970;2022-08-16T08:35:39;99277.59;;;49.55;10.55
2563;BME280;1291;51.420;6.970;2022-08-16T08:38:04;99272.84;;;50.34;10.26
2563;BME280;1291;51.420;6.970;2022-08-16T08:40:34;99279.47;;;48.30;11.68
2563;BME280;1291;51.420;6.970;2022-08-16T08:43:00;99285.72;;;48.69;11.75
2563;BME280;1291;51.420;6.970;2022-08-16T08:45:28;99287.03;;;48.66;11.51
2563;BME280;1291;51.420;6.970;2022-08-16T08:47:53;99294.44;;;48.09;11.86
2563;BME280;1291;51.420;6.970;2022-08-16T08:50:22;99294.00;;;49.31;10.80
2563;BME280;1291;51.420;6.970;2022-08-16T08:52:48;99296.47;;;49.39;10.32
2563;BME280;1291;51.420;6.970;2022-08-16T08:55:19;99298.16;;;50.19;10.13
2563;BME280;1291;51.420;6.970;2022-08-16T08:57:47;99302.75;;;45.90;13.71
2563;BME280;1291;51.420;6.970;2022-08-16T09:00:16;99292.47;;;49.54;10.79
2563;BME280;1291;51.420;6.970;2022-08-16T09:02:43;99290.69;;;50.74;10.29
2563;BME280;1291;51.420;6.970;2022-08-16T09:05:10;99292.59;;;49.77;10.42
2563;BME280;1291;51.420;6.970;2022-08-16T09:07:36;99290.81;;;50.79;9.92
2563;BME280;1291;51.420;6.970;2022-08-16T09:10:04;99288.63;;;49.55;10.94
2563;BME280;1291;51.420;6.970;2022-08-16T09:12:30;99291.94;;;50.36;9.93
2563;BME280;1291;51.420;6.970;2022-08-16T09:14:55;99297.00;;;49.11;10.52
2563;BME280;1291;51.420;6.970;2022-08-16T09:17:21;99291.56;;;48.79;10.81
2563;BME280;1291;51.420;6.970;2022-08-16T09:19:46;99299.94;;;48.09;11.72
2563;BME280;1291;51.420;6.970;2022-08-16T09:22:12;99298.09;;;47.51;11.83
2563;BME280;1291;51.420;6.970;2022-08-16T09:24:40;99298.94;;;48.35;11.55
2563;BME280;1291;51.420;6.970;2022-08-16T09:27:05;99307.38;;;47.50;12.25
2563;BME280;1291;51.420;6.970;2022-08-16T09:29:31;99293.91;;;50.71;10.10
2563;BME280;1291;51.420;6.970;2022-08-16T09:31:57;99300.00;;;51.32;9.66
2563;BME280;1291;51.420;6.970;2022-08-16T09:34:23;99297.53;;;50.83;9.74
2563;BME280;1291;51.420;6.970;2022-08-16T09:36:48;99292.72;;;50.55;9.43
2563;BME280;1291;51.420;6.970;2022-08-16T09:39:14;99295.91;;;50.40;10.50
2563;BME280;1291;51.420;6.970;2022-08-16T09:41:42;99295.28;;;49.84;11.00
2563;BME280;1291;51.420;6.970;2022-08-16T09:44:08;99286.84;;;51.63;9.30
2563;BME280;1291;51.420;6.970;2022-08-16T09:46:33;99286.59;;;51.00;9.31
2563;BME280;1291;51.420;6.970;2022-08-16T09:49:02;99286.69;;;52.27;8.45
2563;BME280;1291;51.420;6.970;2022-08-16T09:51:27;99296.06;;;50.03;10.27
2563;BME280;1291;51.420;6.970;2022-08-16T09:53:53;99292.56;;;49.96;10.60
2563;BME280;1291;51.420;6.970;2022-08-16T09:56:31;99292.31;;;50.39;10.07
2563;BME280;1291;51.420;6.970;2022-08-16T09:58:58;99289.31;;;49.68;10.69
2563;BME280;1291;51.420;6.970;2022-08-16T10:01:25;99286.84;;;49.79;10.11
2563;BME280;1291;51.420;6.970;2022-08-16T10:03:51;99283.56;;;48.96;10.67
2563;BME280;1291;51.420;6.970;2022-08-16T10:06:18;99289.53;;;49.30;10.64
2563;BME280;1291;51.420;6.970;2022-08-16T10:08:49;99286.03;;;49.60;10.04
2563;BME280;1291;51.420;6.970;2022-08-16T10:11:14;99299.47;;;48.76;10.89
2563;BME280;1291;51.420;6.970;2022-08-16T10:13:58;99296.94;;;48.74;10.96
2563;BME280;1291;51.420;6.970;2022-08-16T10:16:27;99286.44;;;49.45;10.68
2563;BME280;1291;51.420;6.970;2022-08-16T10:18:53;99295.88;;;47.80;11.80
2563;BME280;1291;51.420;6.970;2022-08-16T10:21:19;99297.28;;;50.96;8.89
2563;BME280;1291;51.420;6.970;2022-08-16T10:23:45;99290.25;;;49.07;10.54
2563;BME280;1291;51.420;6.970;2022-08-16T10:26:12;99298.84;;;50.69;9.54
2563;BME280;1291;51.420;6.970;2022-08-16T10:28:38;99292.06;;;49.99;9.59
2563;BME280;1291;51.420;6.970;2022-08-16T10:31:04;99290.28;;;51.29;8.76
2563;BME280;1291;51.420;6.970;2022-08-16T10:33:31;99305.50;;;49.46;9.52
2563;BME280;1291;51.420;6.970;2022-08-16T10:35:58;99287.66;;;50.75;8.78
2563;BME280;1291;51.420;6.970;2022-08-16T10:38:25;99293.84;;;49.07;10.19
2563;BME280;1291;51.420;6.970;2022-08-16T10:40:50;99301.63;;;50.92;9.03
2563;BME280;1291;51.420;6.970;2022-08-16T10:43:16;99300.09;;;49.70;9.76
2563;BME280;1291;51.420;6.970;2022-08-16T10:45:41;99294.63;;;51.25;8.71
2563;BME280;1291;51.420;6.970;2022-08-16T10:48:10;99292.47;;;52.25;8.31
2563;BME280;1291;51.420;6.970;2022-08-16T10:50:36;99294.66;;;51.94;8.14
2563;BME280;1291;51.420;6.970;2022-08-16T10:53:02;99308.34;;;49.89;9.40
2563;BME280;1291;51.420;6.970;2022-08-16T10:55:40;99304.56;;;51.78;8.16
2563;BME280;1291;51.420;6.970;2022-08-16T10:58:08;99301.97;;;50.60;8.94
2563;BME280;1291;51.420;6.970;2022-08-16T11:00:35;99304.75;;;49.39;9.88
2563;BME280;1291;51.420;6.970;2022-08-16T11:03:03;99295.03;;;50.81;8.60
2563;BME280;1291;51.420;6.970;2022-08-16T11:05:30;99294.44;;;50.79;8.50
2563;BME280;1291;51.420;6.970;2022-08-16T11:07:57;99302.81;;;50.73;8.59
2563;BME280;1291;51.420;6.970;2022-08-16T11:10:30;99305.97;;;50.88;8.01
2563;BME280;1291;51.420;6.970;2022-08-16T11:12:55;99303.41;;;50.63;8.07
2563;BME280;1291;51.420;6.970;2022-08-16T11:15:21;99303.69;;;49.71;8.69
2563;BME280;1291;51.420;6.970;2022-08-16T11:17:48;99307.53;;;49.88;9.26
2563;BME280;1291;51.420;6.970;2022-08-16T11:20:15;99297.38;;;51.77;8.04
2563;BME280;1291;51.420;6.970;2022-08-16T11:22:43;99303.03;;;51.07;7.92
2563;BME280;1291;51.420;6.970;2022-08-16T11:25:11;99305.34;;;50.20;8.67
2563;BME280;1291;51.420;6.970;2022-08-16T11:27:37;99304.88;;;52.23;7.26
2563;BME280;1291;51.420;6.970;2022-08-16T11:30:04;99297.94;;;52.08;7.22
2563;BME280;1291;51.420;6.970;2022-08-16T11:32:31;99289.50;;;50.81;8.36
2563;BME280;1291;51.420;6.970;2022-08-16T11:34:58;99303.22;;;52.55;7.66
2563;BME280;1291;51.420;6.970;2022-08-16T11:37:23;99305.34;;;49.60;9.31
2563;BME280;1291;51.420;6.970;2022-08-16T11:39:49;99302.94;;;51.25;7.95
2563;BME280;1291;51.420;6.970;2022-08-16T11:42:14;99294.31;;;52.87;7.08
2563;BME280;1291;51.420;6.970;2022-08-16T11:44:40;99293.47;;;52.70;6.79
2563;BME280;1291;51.420;6.970;2022-08-16T11:47:05;99298.09;;;53.20;6.88
2563;BME280;1291;51.420;6.970;2022-08-16T11:49:31;99301.59;;;52.26;7.04
2563;BME280;1291;51.420;6.970;2022-08-16T11:51:57;99302.34;;;50.76;8.08
2563;BME280;1291;51.420;6.970;2022-08-16T11:54:22;99303.84;;;51.54;7.53
2563;BME280;1291;51.420;6.970;2022-08-16T11:56:51;99301.81;;;51.38;7.17
2563;BME280;1291;51.420;6.970;2022-08-16T11:59:16;99293.75;;;52.06;7.32
2563;BME280;1291;51.420;6.970;2022-08-16T12:01:44;99299.66;;;50.03;8.40
2563;BME280;1291;51.420;6.970;2022-08-16T12:04:09;99305.84;;;51.99;7.37
2563;BME280;1291;51.420;6.970;2022-08-16T12:06:38;99310.50;;;50.94;8.30
2563;BME280;1291;51.420;6.970;2022-08-16T12:09:04;99310.09;;;51.78;7.30
2563;BME280;1291;51.420;6.970;2022-08-16T12:11:31;99306.75;;;50.77;8.06
2563;BME280;1291;51.420;6.970;2022-08-16T12:13:58;99313.97;;;49.08;9.25
2563;BME280;1291;51.420;6.970;2022-08-16T12:16:24;99310.25;;;51.08;7.52
2563;BME280;1291;51.420;6.970;2022-08-16T12:18:49;99309.06;;;52.42;6.78
2563;BME280;1291;51.420;6.970;2022-08-16T12:21:16;99312.13;;;52.57;6.64
2563;BME280;1291;51.420;6.970;2022-08-16T12:23:41;99303.84;;;52.96;6.69
2563;BME280;1291;51.420;6.970;2022-08-16T12:26:07;99305.06;;;52.33;6.82
2563;BME280;1291;51.420;6.970;2022-08-16T12:28:33;99305.75;;;51.42;7.87
2563;BME280;1291;51.420;6.970;2022-08-16T12:30:58;99300.09;;;52.52;7.01
2563;BME280;1291;51.420;6.970;2022-08-16T12:33:24;99291.56;;;52.08;7.55
2563;BME280;1291;51.420;6.970;2022-08-16T12:35:49;99297.44;;;53.13;6.82
2563;BME280;1291;51.420;6.970;2022-08-16T12:38:16;99291.75;;;51.20;8.61
2563;BME280;1291;51.420;6.970;2022-08-16T12:40:43;99292.94;;;51.24;8.21
2563;BME280;1291;51.420;6.970;2022-08-16T12:43:11;99290.19;;;52.73;6.96
2563;BME280;1291;51.420;6.970;2022-08-16T12:45:47;99307.00;;;52.66;6.81
2563;BME280;1291;51.420;6.970;2022-08-16T12:48:18;99315.28;;;52.83;6.75
2563;BME280;1291;51.420;6.970;2022-08-16T12:51:05;99309.72;;;52.15;7.18
2563;BME280;1291;51.420;6.970;2022-08-16T12:53:31;99306.63;;;52.46;7.25
2563;BME280;1291;51.420;6.970;2022-08-16T12:56:01;99308.06;;;52.82;6.84
2563;BME280;1291;51.420;6.970;2022-08-16T12:58:27;99314.94;;;53.80;6.41
2563;BME280;1291;51.420;6.970;2022-08-16T13:00:52;99315.97;;;52.90;6.80
2563;BME280;1291;51.420;6.970;2022-08-16T13:03:18;99313.09;;;51.89;7.27
2563;BME280;1291;51.420;6.970;2022-08-16T13:05:44;99307.78;;;52.16;7.13
2563;BME280;1291;51.420;6.970;2022-08-16T13:08:12;99315.34;;;52.20;7.27
2563;BME280;1291;51.420;6.970;2022-08-16T13:10:40;99311.38;;;53.40;6.71
2563;BME280;1291;51.420;6.970;2022-08-16T13:13:09;99315.81;;;52.46;7.48
2563;BME280;1291;51.420;6.970;2022-08-16T13:15:36;99311.75;;;51.63;7.96
2563;BME280;1291;51.420;6.970;2022-08-16T13:18:03;99313.28;;;52.78;7.12
2563;BME280;1291;51.420;6.970;2022-08-16T13:20:29;99318.19;;;53.10;7.21
2563;BME280;1291;51.420;6.970;2022-08-16T13:23:10;99311.59;;;52.77;7.09
2563;BME280;1291;51.420;6.970;2022-08-16T13:25:38;99317.06;;;52.55;7.75
2563;BME280;1291;51.420;6.970;2022-08-16T13:28:04;99318.03;;;51.58;7.81